Time,TemperatureF,DewpointF,PressureIn,WindDirection,WindDirectionDegrees,WindSpeedMPH,WindSpeedGustMPH,Humidity,HourlyPrecipIn,Conditions,Clouds,dailyrainin,SoftwareType,DateUTC
2013-02-09 00:00:00,16.7,7.0,29.75,North,0,0.0,0.0,65,0.00,,,0.00,WUHU216WMR968SP,2013-02-09 05:00:00,
2013-02-09 00:05:00,16.7,6.7,29.78,North,0,0.0,0.0,64,0.00,,,0.00,WUHU216WMR968SP,2013-02-09 05:05:00,
2013-02-09 00:10:00,16.5,7.2,29.78,North,0,0.0,0.0,66,0.00,,,0.00,WUHU216WMR968SP,2013-02-09 05:10:00,
2013-02-09 00:15:00,16.5,7.2,29.78,North,0,0.0,0.0,66,0.00,,,0.00,WUHU216WMR968SP,2013-02-09 05:15:00,
2013-02-09 00:20:00,16.5,7.2,29.78,North,0,0.0,0.0,66,0.00,,,0.00,WUHU216WMR968SP,2013-02-09 05:20:00,
2013-02-09 00:25:00,16.5,7.2,29.78,North,0,0.0,0.0,66,0.00,,,0.00,WUHU216WMR968SP,2013-02-09 05:25:00,
2013-02-09 00:30:00,16.7,8.3,29.78,North,0,0.0,0.0,69,0.00,,,0.00,WUHU216WMR968SP,2013-02-09 05:30:00,
2013-02-09 00:35:00,16.7,9.0,29.78,North,0,0.0,0.0,71,0.00,,,0.00,WUHU216WMR968SP,2013-02-09 05:35:00,
2013-02-09 00:40:00,16.7,9.3,29.75,North,0,0.0,0.0,72,0.00,,,0.00,WUHU216WMR968SP,2013-02-09 05:40:00,
2013-02-09 00:45:00,16.9,9.2,29.75,North,0,0.0,0.0,71,0.00,,,0.00,WUHU216WMR968SP,2013-02-09 05:45:00,
2013-02-09 00:50:00,17.1,9.4,29.72,North,0,0.0,0.0,71,0.00,,,0.00,WUHU216WMR968SP,2013-02-09 05:50:00,
2013-02-09 00:55:00,17.1,9.4,29.72,North,0,0.0,0.0,71,0.00,,,0.00,WUHU216WMR968SP,2013-02-09 05:55:00,
2013-02-09 01:00:00,17.2,9.1,29.72,North,0,0.0,0.0,70,0.00,,,0.00,WUHU216WMR968SP,2013-02-09 06:00:00,
2013-02-09 01:05:00,17.4,9.3,29.72,North,0,0.0,0.0,70,0.00,,,0.00,WUHU216WMR968SP,2013-02-09 06:05:00,
2013-02-09 01:10:00,17.4,9.3,29.72,North,0,0.0,0.0,70,0.00,,,0.00,WUHU216WMR968SP,2013-02-09 06:10:00,
2013-02-09 01:15:00,17.6,9.2,29.72,North,0,0.0,0.0,69,0.00,,,0.00,WUHU216WMR968SP,2013-02-09 06:15:00,
2013-02-09 01:20:00,17.6,9.5,29.72,North,0,0.0,0.0,70,0.00,,,0.00,WUHU216WMR968SP,2013-02-09 06:20:00,
2013-02-09 01:25:00,17.8,9.7,29.72,North,0,0.0,0.0,70,0.00,,,0.00,WUHU216WMR968SP,2013-02-09 06:25:00,
2013-02-09 01:30:00,17.8,9.7,29.72,North,0,0.0,0.0,70,0.00,,,0.00,WUHU216WMR968SP,2013-02-09 06:30:00,
2013-02-09 01:35:00,17.8,10.0,29.72,North,0,0.0,0.0,71,0.00,,,0.00,WUHU216WMR968SP,2013-02-09 06:35:00,
2013-02-09 01:40:00,17.8,10.0,29.72,North,0,0.0,0.0,71,0.00,,,0.00,WUHU216WMR968SP,2013-02-09 06:40:00,
2013-02-09 01:45:00,17.8,10.3,29.72,North,0,0.0,0.0,72,0.00,,,0.00,WUHU216WMR968SP,2013-02-09 06:45:00,
2013-02-09 01:50:00,18.1,10.6,29.72,North,0,0.0,0.0,72,0.00,,,0.00,WUHU216WMR968SP,2013-02-09 06:50:00,
2013-02-09 01:56:00,18.1,10.9,29.72,North,0,0.0,0.0,73,0.00,,,0.00,WUHU216WMR968SP,2013-02-09 06:56:00,
2013-02-09 02:01:00,18.5,11.6,29.72,North,0,0.0,0.0,74,0.00,,,0.00,WUHU216WMR968SP,2013-02-09 07:01:00,
2013-02-09 02:06:00,18.7,12.4,29.72,North,0,0.0,0.0,76,0.00,,,0.00,WUHU216WMR968SP,2013-02-09 07:06:00,
2013-02-09 02:11:00,18.7,12.7,29.72,North,0,0.0,0.0,77,0.00,,,0.00,WUHU216WMR968SP,2013-02-09 07:11:00,
2013-02-09 02:16:00,19.0,13.3,29.72,North,0,0.0,0.0,78,0.00,,,0.00,WUHU216WMR968SP,2013-02-09 07:16:00,
2013-02-09 02:21:00,19.0,13.3,29.72,North,0,0.0,0.0,78,0.00,,,0.00,WUHU216WMR968SP,2013-02-09 07:21:00,
2013-02-09 02:26:00,19.2,13.8,29.72,North,0,0.0,0.0,79,0.00,,,0.00,WUHU216WMR968SP,2013-02-09 07:26:00,
2013-02-09 02:32:00,19.2,13.8,29.72,North,0,0.0,0.0,79,0.00,,,0.00,WUHU216WMR968SP,2013-02-09 07:32:00,
2013-02-09 02:37:00,19.2,13.8,29.72,North,0,0.0,0.0,79,0.00,,,0.00,WUHU216WMR968SP,2013-02-09 07:37:00,
2013-02-09 02:42:00,19.2,13.8,29.72,North,0,0.0,0.0,79,0.00,,,0.00,WUHU216WMR968SP,2013-02-09 07:42:00,
2013-02-09 02:47:00,19.2,13.8,29.72,North,0,0.0,0.0,79,0.00,,,0.00,WUHU216WMR968SP,2013-02-09 07:47:00,
2013-02-09 02:52:00,19.4,14.0,29.72,North,0,0.0,0.0,79,0.00,,,0.00,WUHU216WMR968SP,2013-02-09 07:52:00,
2013-02-09 02:57:00,19.4,14.0,29.72,North,0,0.0,0.0,79,0.00,,,0.00,WUHU216WMR968SP,2013-02-09 07:57:00,
2013-02-09 03:02:00,19.4,14.0,29.72,North,0,0.0,0.0,79,0.00,,,0.00,WUHU216WMR968SP,2013-02-09 08:02:00,
2013-02-09 03:07:00,19.4,14.0,29.72,North,0,0.0,0.0,79,0.00,,,0.00,WUHU216WMR968SP,2013-02-09 08:07:00,
2013-02-09 03:12:00,19.2,13.8,29.72,North,0,0.0,0.0,79,0.00,,,0.00,WUHU216WMR968SP,2013-02-09 08:12:00,
2013-02-09 03:17:00,19.2,13.8,29.72,North,0,0.0,0.0,79,0.00,,,0.00,WUHU216WMR968SP,2013-02-09 08:17:00,
2013-02-09 03:22:00,19.2,13.8,29.69,North,0,0.0,0.0,79,0.00,,,0.00,WUHU216WMR968SP,2013-02-09 08:22:00,
2013-02-09 03:27:00,19.0,13.6,29.69,North,0,0.0,0.0,79,0.00,,,0.00,WUHU216WMR968SP,2013-02-09 08:27:00,
2013-02-09 03:32:00,18.9,13.5,29.69,North,0,0.0,0.0,79,0.00,,,0.00,WUHU216WMR968SP,2013-02-09 08:32:00,
2013-02-09 03:37:00,18.7,13.3,29.69,North,0,0.0,0.0,79,0.00,,,0.00,WUHU216WMR968SP,2013-02-09 08:37:00,
2013-02-09 03:42:00,18.7,13.0,29.69,North,0,0.0,0.0,78,0.00,,,0.00,WUHU216WMR968SP,2013-02-09 08:42:00,
2013-02-09 03:47:00,18.5,12.8,29.69,North,0,0.0,0.0,78,0.00,,,0.00,WUHU216WMR968SP,2013-02-09 08:47:00,
2013-02-09 03:52:00,18.3,12.3,29.69,North,0,0.0,0.0,77,0.00,,,0.00,WUHU216WMR968SP,2013-02-09 08:52:00,
2013-02-09 03:57:00,18.1,12.1,29.69,North,0,0.0,0.0,77,0.00,,,0.00,WUHU216WMR968SP,2013-02-09 08:57:00,
2013-02-09 04:02:00,18.1,12.1,29.69,North,0,0.0,0.0,77,0.00,,,0.00,WUHU216WMR968SP,2013-02-09 09:02:00,
2013-02-09 04:07:00,18.0,12.0,29.69,North,0,0.0,0.0,77,0.00,,,0.00,WUHU216WMR968SP,2013-02-09 09:07:00,
2013-02-09 04:12:00,17.8,11.5,29.69,North,0,0.0,0.0,76,0.00,,,0.00,WUHU216WMR968SP,2013-02-09 09:12:00,
2013-02-09 04:17:00,17.8,11.5,29.69,North,0,0.0,0.0,76,0.00,,,0.00,WUHU216WMR968SP,2013-02-09 09:17:00,
2013-02-09 04:22:00,17.8,11.5,29.69,North,0,0.0,0.0,76,0.00,,,0.00,WUHU216WMR968SP,2013-02-09 09:22:00,
2013-02-09 04:27:00,17.6,11.3,29.69,North,0,0.0,0.0,76,0.00,,,0.00,WUHU216WMR968SP,2013-02-09 09:27:00,
2013-02-09 04:32:00,17.8,11.5,29.69,North,0,0.0,0.0,76,0.00,,,0.00,WUHU216WMR968SP,2013-02-09 09:32:00,
2013-02-09 04:37:00,18.0,11.7,29.69,North,0,0.0,0.0,76,0.00,,,0.00,WUHU216WMR968SP,2013-02-09 09:37:00,
2013-02-09 04:42:00,18.1,11.8,29.69,North,0,0.0,0.0,76,0.00,,,0.00,WUHU216WMR968SP,2013-02-09 09:42:00,
2013-02-09 04:47:00,18.3,11.7,29.69,North,0,0.0,0.0,75,0.00,,,0.00,WUHU216WMR968SP,2013-02-09 09:47:00,
2013-02-09 04:52:00,18.3,11.7,29.69,North,0,0.0,0.0,75,0.00,,,0.00,WUHU216WMR968SP,2013-02-09 09:52:00,
2013-02-09 04:57:00,18.3,11.7,29.69,North,0,0.0,0.0,75,0.00,,,0.00,WUHU216WMR968SP,2013-02-09 09:57:00,
2013-02-09 05:02:00,18.3,12.0,29.69,North,0,0.0,0.0,76,0.00,,,0.00,WUHU216WMR968SP,2013-02-09 10:02:00,
2013-02-09 05:07:00,18.1,11.8,29.69,North,0,0.0,0.0,76,0.00,,,0.00,WUHU216WMR968SP,2013-02-09 10:07:00,
2013-02-09 05:12:00,18.0,11.1,29.69,North,0,0.0,0.0,74,0.00,,,0.00,WUHU216WMR968SP,2013-02-09 10:12:00,
2013-02-09 05:17:00,18.0,10.5,29.69,North,0,0.0,0.0,72,0.00,,,0.00,WUHU216WMR968SP,2013-02-09 10:17:00,
2013-02-09 05:22:00,18.0,10.2,29.69,North,0,0.0,0.0,71,0.00,,,0.00,WUHU216WMR968SP,2013-02-09 10:22:00,
2013-02-09 05:27:00,17.8,9.7,29.69,North,0,0.0,0.0,70,0.00,,,0.00,WUHU216WMR968SP,2013-02-09 10:27:00,
2013-02-09 05:32:00,17.8,8.4,29.69,North,0,0.0,0.0,66,0.00,,,0.00,WUHU216WMR968SP,2013-02-09 10:32:00,
2013-02-09 05:37:00,17.8,8.7,29.69,North,0,0.0,0.0,67,0.00,,,0.00,WUHU216WMR968SP,2013-02-09 10:37:00,
2013-02-09 05:42:00,18.0,8.6,29.69,North,0,0.0,0.0,66,0.00,,,0.00,WUHU216WMR968SP,2013-02-09 10:42:00,
2013-02-09 05:47:00,18.1,8.4,29.69,North,0,0.0,0.0,65,0.00,,,0.00,WUHU216WMR968SP,2013-02-09 10:47:00,
2013-02-09 05:52:00,18.0,7.6,29.69,North,0,0.0,0.0,63,0.00,,,0.00,WUHU216WMR968SP,2013-02-09 10:52:00,
2013-02-09 05:57:00,18.1,7.7,29.69,North,0,0.0,0.0,63,0.00,,,0.00,WUHU216WMR968SP,2013-02-09 10:57:00,
2013-02-09 06:02:00,18.1,6.9,29.69,North,0,0.0,0.0,61,0.00,,,0.00,WUHU216WMR968SP,2013-02-09 11:02:00,
2013-02-09 06:07:00,18.1,7.3,29.72,North,0,0.0,0.0,62,0.00,,,0.00,WUHU216WMR968SP,2013-02-09 11:07:00,
2013-02-09 06:12:00,18.1,6.9,29.72,North,0,0.0,0.0,61,0.00,,,0.00,WUHU216WMR968SP,2013-02-09 11:12:00,
2013-02-09 06:17:00,18.0,6.5,29.72,North,0,0.0,0.0,60,0.00,,,0.00,WUHU216WMR968SP,2013-02-09 11:17:00,
2013-02-09 06:22:00,17.2,5.0,29.72,North,0,0.0,0.0,58,0.00,,,0.00,WUHU216WMR968SP,2013-02-09 11:22:00,
2013-02-09 06:27:00,16.5,3.9,29.72,North,0,0.0,0.0,57,0.00,,,0.00,WUHU216WMR968SP,2013-02-09 11:27:00,
2013-02-09 06:32:00,16.0,3.8,29.72,North,0,0.0,0.0,58,0.00,,,0.00,WUHU216WMR968SP,2013-02-09 11:32:00,
2013-02-09 06:37:00,15.8,4.4,29.72,North,0,0.0,0.0,60,0.00,,,0.00,WUHU216WMR968SP,2013-02-09 11:37:00,
2013-02-09 06:42:00,15.3,2.8,29.72,North,0,0.0,0.0,57,0.00,,,0.00,WUHU216WMR968SP,2013-02-09 11:42:00,
2013-02-09 06:47:00,15.1,2.6,29.72,North,0,0.0,0.0,57,0.00,,,0.00,WUHU216WMR968SP,2013-02-09 11:47:00,
2013-02-09 06:52:00,14.9,2.0,29.72,North,0,0.0,0.0,56,0.00,,,0.00,WUHU216WMR968SP,2013-02-09 11:52:00,
2013-02-09 06:57:00,14.5,1.3,29.72,North,0,0.0,0.0,55,0.00,,,0.00,WUHU216WMR968SP,2013-02-09 11:57:00,
2013-02-09 07:02:00,14.4,1.6,29.72,North,0,0.0,0.0,56,0.00,,,0.00,WUHU216WMR968SP,2013-02-09 12:02:00,
2013-02-09 07:07:00,14.2,1.4,29.72,North,0,0.0,0.0,56,0.00,,,0.00,WUHU216WMR968SP,2013-02-09 12:07:00,
2013-02-09 07:12:00,13.8,1.0,29.72,North,0,0.0,0.0,56,0.00,,,0.00,WUHU216WMR968SP,2013-02-09 12:12:00,
2013-02-09 07:17:00,13.8,1.0,29.72,North,0,0.0,0.0,56,0.00,,,0.00,WUHU216WMR968SP,2013-02-09 12:17:00,
2013-02-09 07:22:00,13.6,0.8,29.72,North,0,0.0,0.0,56,0.00,,,0.00,WUHU216WMR968SP,2013-02-09 12:22:00,
2013-02-09 07:27:00,13.6,0.8,29.72,North,0,0.0,0.0,56,0.00,,,0.00,WUHU216WMR968SP,2013-02-09 12:27:00,
2013-02-09 07:32:00,13.5,0.7,29.72,North,0,0.0,0.0,56,0.00,,,0.00,WUHU216WMR968SP,2013-02-09 12:32:00,
2013-02-09 07:37:00,13.5,0.7,29.75,North,0,0.0,0.0,56,0.00,,,0.00,WUHU216WMR968SP,2013-02-09 12:37:00,
2013-02-09 07:42:00,13.1,0.3,29.75,North,0,0.0,0.0,56,0.00,,,0.00,WUHU216WMR968SP,2013-02-09 12:42:00,
2013-02-09 07:47:00,12.9,0.1,29.75,North,0,0.0,0.0,56,0.00,,,0.00,WUHU216WMR968SP,2013-02-09 12:47:00,
2013-02-09 07:52:00,12.7,0.0,29.75,North,0,0.0,0.0,56,0.00,,,0.00,WUHU216WMR968SP,2013-02-09 12:52:00,
2013-02-09 07:57:00,12.7,0.0,29.75,North,0,0.0,0.0,56,0.00,,,0.00,WUHU216WMR968SP,2013-02-09 12:57:00,
2013-02-09 08:02:00,12.6,-0.1,29.75,North,0,0.0,0.0,56,0.00,,,0.00,WUHU216WMR968SP,2013-02-09 13:02:00,
2013-02-09 08:07:00,12.4,-0.3,29.75,North,0,0.0,0.0,56,0.00,,,0.00,WUHU216WMR968SP,2013-02-09 13:07:00,
2013-02-09 08:12:00,12.2,-0.5,29.75,North,0,0.0,0.0,56,0.00,,,0.00,WUHU216WMR968SP,2013-02-09 13:12:00,
2013-02-09 08:17:00,12.2,-0.5,29.75,North,0,0.0,0.0,56,0.00,,,0.00,WUHU216WMR968SP,2013-02-09 13:17:00,
2013-02-09 08:22:00,12.2,-0.5,29.75,North,0,0.0,0.0,56,0.00,,,0.00,WUHU216WMR968SP,2013-02-09 13:22:00,
2013-02-09 08:27:00,12.0,-0.7,29.75,North,0,0.0,0.0,56,0.00,,,0.00,WUHU216WMR968SP,2013-02-09 13:27:00,
2013-02-09 08:32:00,12.0,-0.7,29.75,North,0,0.0,0.0,56,0.00,,,0.00,WUHU216WMR968SP,2013-02-09 13:32:00,
2013-02-09 08:37:00,12.0,-0.7,29.75,North,0,0.0,0.0,56,0.00,,,0.00,WUHU216WMR968SP,2013-02-09 13:37:00,
2013-02-09 08:42:00,12.0,-0.7,29.75,North,0,0.0,0.0,56,0.00,,,0.00,WUHU216WMR968SP,2013-02-09 13:42:00,
2013-02-09 08:47:00,12.0,-0.7,29.75,North,0,0.0,0.0,56,0.00,,,0.00,WUHU216WMR968SP,2013-02-09 13:47:00,
2013-02-09 08:52:00,12.0,-0.7,29.75,North,0,0.0,0.0,56,0.00,,,0.00,WUHU216WMR968SP,2013-02-09 13:52:00,
2013-02-09 08:57:00,11.8,-0.9,29.75,North,0,0.0,0.0,56,0.00,,,0.00,WUHU216WMR968SP,2013-02-09 13:57:00,
2013-02-09 09:02:00,12.0,-0.7,29.75,North,0,0.0,0.0,56,0.00,,,0.00,WUHU216WMR968SP,2013-02-09 14:02:00,
2013-02-09 09:07:00,12.0,-0.7,29.75,North,0,0.0,0.0,56,0.00,,,0.00,WUHU216WMR968SP,2013-02-09 14:07:00,
2013-02-09 09:13:00,12.2,-0.5,29.75,North,0,0.0,0.0,56,0.00,,,0.00,WUHU216WMR968SP,2013-02-09 14:13:00,
2013-02-09 09:18:00,12.2,-0.5,29.75,North,0,0.0,0.0,56,0.00,,,0.00,WUHU216WMR968SP,2013-02-09 14:18:00,
2013-02-09 09:24:00,12.6,-0.1,29.75,North,0,0.0,0.0,56,0.00,,,0.00,WUHU216WMR968SP,2013-02-09 14:24:00,
2013-02-09 09:29:00,12.7,0.0,29.75,North,0,0.0,0.0,56,0.00,,,0.00,WUHU216WMR968SP,2013-02-09 14:29:00,
2013-02-09 09:34:00,12.6,-0.1,29.75,North,0,0.0,0.0,56,0.00,,,0.00,WUHU216WMR968SP,2013-02-09 14:34:00,
2013-02-09 09:39:00,12.7,0.0,29.78,North,0,0.0,0.0,56,0.00,,,0.00,WUHU216WMR968SP,2013-02-09 14:39:00,
2013-02-09 09:43:00,12.9,0.1,29.78,North,0,0.0,0.0,56,0.00,,,0.00,WUHU216WMR968SP,2013-02-09 14:43:00,
2013-02-09 09:48:00,12.9,0.1,29.78,North,0,0.0,0.0,56,0.00,,,0.00,WUHU216WMR968SP,2013-02-09 14:48:00,
2013-02-09 09:53:00,13.3,0.5,29.78,North,0,0.0,0.0,56,0.00,,,0.00,WUHU216WMR968SP,2013-02-09 14:53:00,
2013-02-09 09:58:00,13.5,0.7,29.78,North,0,0.0,0.0,56,0.00,,,0.00,WUHU216WMR968SP,2013-02-09 14:58:00,
2013-02-09 10:03:00,13.6,0.8,29.78,North,0,0.0,0.0,56,0.00,,,0.00,WUHU216WMR968SP,2013-02-09 15:03:00,
2013-02-09 10:08:00,13.8,1.0,29.78,North,0,0.0,0.0,56,0.00,,,0.00,WUHU216WMR968SP,2013-02-09 15:08:00,
2013-02-09 10:13:00,13.8,1.0,29.78,North,0,0.0,0.0,56,0.00,,,0.00,WUHU216WMR968SP,2013-02-09 15:13:00,
2013-02-09 10:18:00,14.2,-0.7,29.78,North,0,0.0,0.0,51,0.00,,,0.00,WUHU216WMR968SP,2013-02-09 15:18:00,
2013-02-09 10:23:00,14.4,-0.9,29.81,North,0,0.0,0.0,50,0.00,,,0.00,WUHU216WMR968SP,2013-02-09 15:23:00,
2013-02-09 10:28:00,14.2,-1.1,29.81,North,0,0.0,0.0,50,0.00,,,0.00,WUHU216WMR968SP,2013-02-09 15:28:00,
2013-02-09 10:33:00,14.4,-0.9,29.81,North,0,0.0,0.0,50,0.00,,,0.00,WUHU216WMR968SP,2013-02-09 15:33:00,
2013-02-09 10:38:00,14.4,-1.4,29.81,North,0,0.0,0.0,49,0.00,,,0.00,WUHU216WMR968SP,2013-02-09 15:38:00,
2013-02-09 10:43:00,14.5,-1.7,29.81,North,0,0.0,0.0,48,0.00,,,0.00,WUHU216WMR968SP,2013-02-09 15:43:00,
2013-02-09 10:48:00,14.5,-1.3,29.81,North,0,0.0,0.0,49,0.00,,,0.00,WUHU216WMR968SP,2013-02-09 15:48:00,
2013-02-09 10:53:00,14.7,-1.1,29.81,North,0,0.0,0.0,49,0.00,,,0.00,WUHU216WMR968SP,2013-02-09 15:53:00,
2013-02-09 10:58:00,14.9,-0.9,29.81,North,0,0.0,0.0,49,0.00,,,0.00,WUHU216WMR968SP,2013-02-09 15:58:00,
2013-02-09 11:03:00,14.7,-1.1,29.81,North,0,0.0,0.0,49,0.00,,,0.00,WUHU216WMR968SP,2013-02-09 16:03:00,
2013-02-09 11:08:00,14.9,-1.4,29.81,North,0,0.0,0.0,48,0.00,,,0.00,WUHU216WMR968SP,2013-02-09 16:08:00,
2013-02-09 11:13:00,14.5,-1.7,29.81,North,0,0.0,0.0,48,0.00,,,0.00,WUHU216WMR968SP,2013-02-09 16:13:00,
2013-02-09 11:18:00,14.9,-1.4,29.81,North,0,0.0,0.0,48,0.00,,,0.00,WUHU216WMR968SP,2013-02-09 16:18:00,
2013-02-09 11:23:00,15.3,-1.4,29.81,North,0,0.0,0.0,47,0.00,,,0.00,WUHU216WMR968SP,2013-02-09 16:23:00,
2013-02-09 11:28:00,15.4,-1.8,29.81,North,0,0.0,0.0,46,0.00,,,0.00,WUHU216WMR968SP,2013-02-09 16:28:00,
2013-02-09 11:33:00,15.4,-1.8,29.81,North,0,0.0,0.0,46,0.00,,,0.00,WUHU216WMR968SP,2013-02-09 16:33:00,
2013-02-09 11:38:00,15.3,-1.9,29.81,North,0,0.0,0.0,46,0.00,,,0.00,WUHU216WMR968SP,2013-02-09 16:38:00,
2013-02-09 11:43:00,15.6,-1.6,29.81,North,0,0.0,0.0,46,0.00,,,0.00,WUHU216WMR968SP,2013-02-09 16:43:00,
2013-02-09 11:48:00,15.8,-1.5,29.81,North,0,0.0,0.0,46,0.00,,,0.00,WUHU216WMR968SP,2013-02-09 16:48:00,
2013-02-09 11:53:00,16.0,-1.7,29.81,North,0,0.0,0.0,45,0.00,,,0.00,WUHU216WMR968SP,2013-02-09 16:53:00,
2013-02-09 11:58:00,16.5,-0.8,29.81,North,0,0.0,0.0,46,0.00,,,0.00,WUHU216WMR968SP,2013-02-09 16:58:00,
2013-02-09 12:03:00,16.9,-0.9,29.81,North,0,0.0,0.0,45,0.00,,,0.00,WUHU216WMR968SP,2013-02-09 17:03:00,
2013-02-09 12:08:00,17.4,-0.5,29.84,North,0,0.0,0.0,45,0.00,,,0.00,WUHU216WMR968SP,2013-02-09 17:08:00,
2013-02-09 12:13:00,17.4,-1.0,29.84,North,0,0.0,0.0,44,0.00,,,0.00,WUHU216WMR968SP,2013-02-09 17:13:00,
2013-02-09 12:18:00,17.8,-0.6,29.84,North,0,0.0,0.0,44,0.00,,,0.00,WUHU216WMR968SP,2013-02-09 17:18:00,
2013-02-09 12:23:00,18.1,0.2,29.84,North,0,0.0,0.0,45,0.00,,,0.00,WUHU216WMR968SP,2013-02-09 17:23:00,
2013-02-09 12:28:00,18.7,0.7,29.84,North,0,0.0,0.0,45,0.00,,,0.00,WUHU216WMR968SP,2013-02-09 17:28:00,
2013-02-09 12:33:00,18.7,0.2,29.84,North,0,0.0,0.0,44,0.00,,,0.00,WUHU216WMR968SP,2013-02-09 17:33:00,
2013-02-09 12:39:00,18.7,-0.3,29.84,North,0,0.0,0.0,43,0.00,,,0.00,WUHU216WMR968SP,2013-02-09 17:39:00,
2013-02-09 12:44:00,19.4,0.9,29.84,North,0,0.0,0.0,44,0.00,,,0.00,WUHU216WMR968SP,2013-02-09 17:44:00,
2013-02-09 12:49:00,19.2,0.2,29.84,North,0,0.0,0.0,43,0.00,,,0.00,WUHU216WMR968SP,2013-02-09 17:49:00,
2013-02-09 12:54:00,18.5,-0.4,29.84,North,0,0.0,0.0,43,0.00,,,0.00,WUHU216WMR968SP,2013-02-09 17:54:00,
2013-02-09 12:59:00,19.0,0.5,29.84,North,0,0.0,0.0,44,0.00,,,0.00,WUHU216WMR968SP,2013-02-09 17:59:00,
2013-02-09 13:04:00,19.0,0.0,29.84,North,0,0.0,0.0,43,0.00,,,0.00,WUHU216WMR968SP,2013-02-09 18:04:00,
2013-02-09 13:09:00,18.1,-0.8,29.84,North,0,0.0,0.0,43,0.00,,,0.00,WUHU216WMR968SP,2013-02-09 18:09:00,
2013-02-09 13:14:00,17.6,-1.3,29.84,North,0,0.0,0.0,43,0.00,,,0.00,WUHU216WMR968SP,2013-02-09 18:14:00,
2013-02-09 13:19:00,17.8,-1.1,29.84,North,0,0.0,0.0,43,0.00,,,0.00,WUHU216WMR968SP,2013-02-09 18:19:00,
2013-02-09 13:24:00,17.6,-0.8,29.84,North,0,0.0,0.0,44,0.00,,,0.00,WUHU216WMR968SP,2013-02-09 18:24:00,
2013-02-09 13:29:00,17.8,-0.6,29.84,North,0,0.0,0.0,44,0.00,,,0.00,WUHU216WMR968SP,2013-02-09 18:29:00,
2013-02-09 13:34:00,18.1,-0.8,29.84,North,0,0.0,0.0,43,0.00,,,0.00,WUHU216WMR968SP,2013-02-09 18:34:00,
2013-02-09 13:39:00,18.1,-1.3,29.84,North,0,0.0,0.0,42,0.00,,,0.00,WUHU216WMR968SP,2013-02-09 18:39:00,
2013-02-09 13:44:00,18.0,-1.4,29.84,North,0,0.0,0.0,42,0.00,,,0.00,WUHU216WMR968SP,2013-02-09 18:44:00,
2013-02-09 13:49:00,18.3,-0.6,29.84,North,0,0.0,0.0,43,0.00,,,0.00,WUHU216WMR968SP,2013-02-09 18:49:00,
2013-02-09 13:54:00,18.1,-1.3,29.87,North,0,0.0,0.0,42,0.00,,,0.00,WUHU216WMR968SP,2013-02-09 18:54:00,
2013-02-09 13:59:00,18.1,-1.3,29.87,North,0,0.0,0.0,42,0.00,,,0.00,WUHU216WMR968SP,2013-02-09 18:59:00,
2013-02-09 14:04:00,18.3,-1.7,29.87,North,0,0.0,0.0,41,0.00,,,0.00,WUHU216WMR968SP,2013-02-09 19:04:00,
2013-02-09 14:09:00,18.1,-0.8,29.87,North,0,0.0,0.0,43,0.00,,,0.00,WUHU216WMR968SP,2013-02-09 19:09:00,
2013-02-09 14:14:00,18.3,-1.7,29.87,North,0,0.0,0.0,41,0.00,,,0.00,WUHU216WMR968SP,2013-02-09 19:14:00,
2013-02-09 14:19:00,18.5,-1.5,29.87,North,0,0.0,0.0,41,0.00,,,0.00,WUHU216WMR968SP,2013-02-09 19:19:00,
2013-02-09 14:24:00,18.7,-1.8,29.87,North,0,0.0,0.0,40,0.00,,,0.00,WUHU216WMR968SP,2013-02-09 19:24:00,
2013-02-09 14:29:00,18.7,-0.8,29.87,North,0,0.0,0.0,42,0.00,,,0.00,WUHU216WMR968SP,2013-02-09 19:29:00,
2013-02-09 14:34:00,18.5,-1.5,29.87,North,0,0.0,0.0,41,0.00,,,0.00,WUHU216WMR968SP,2013-02-09 19:34:00,
2013-02-09 14:39:00,18.3,-2.2,29.87,North,0,0.0,0.0,40,0.00,,,0.00,WUHU216WMR968SP,2013-02-09 19:39:00,
2013-02-09 14:44:00,18.7,-2.4,29.87,North,0,0.0,0.0,39,0.00,,,0.00,WUHU216WMR968SP,2013-02-09 19:44:00,
2013-02-09 14:49:00,19.0,-2.7,29.87,North,0,0.0,0.0,38,0.00,,,0.00,WUHU216WMR968SP,2013-02-09 19:49:00,
2013-02-09 14:54:00,19.0,-2.7,29.90,North,0,0.0,0.0,38,0.00,,,0.00,WUHU216WMR968SP,2013-02-09 19:54:00,
2013-02-09 14:59:00,19.2,-2.5,29.90,North,0,0.0,0.0,38,0.00,,,0.00,WUHU216WMR968SP,2013-02-09 19:59:00,
2013-02-09 15:04:00,19.4,-2.3,29.90,North,0,0.0,0.0,38,0.00,,,0.00,WUHU216WMR968SP,2013-02-09 20:04:00,
2013-02-09 15:09:00,19.4,-2.3,29.90,North,0,0.0,0.0,38,0.00,,,0.00,WUHU216WMR968SP,2013-02-09 20:09:00,
2013-02-09 15:14:00,19.4,-2.3,29.90,North,0,0.0,0.0,38,0.00,,,0.00,WUHU216WMR968SP,2013-02-09 20:14:00,
2013-02-09 15:19:00,19.2,-3.0,29.90,North,0,0.0,0.0,37,0.00,,,0.00,WUHU216WMR968SP,2013-02-09 20:19:00,
2013-02-09 15:24:00,19.2,-2.5,29.93,North,0,0.0,0.0,38,0.00,,,0.00,WUHU216WMR968SP,2013-02-09 20:24:00,
2013-02-09 15:29:00,19.0,-3.2,29.93,North,0,0.0,0.0,37,0.00,,,0.00,WUHU216WMR968SP,2013-02-09 20:29:00,
2013-02-09 15:34:00,18.9,-3.3,29.93,North,0,0.0,0.0,37,0.00,,,0.00,WUHU216WMR968SP,2013-02-09 20:34:00,
2013-02-09 15:39:00,18.7,-3.5,29.93,North,0,0.0,0.0,37,0.00,,,0.00,WUHU216WMR968SP,2013-02-09 20:39:00,
2013-02-09 15:44:00,18.7,-3.5,29.93,North,0,0.0,0.0,37,0.00,,,0.00,WUHU216WMR968SP,2013-02-09 20:44:00,
2013-02-09 15:49:00,18.5,-3.7,29.93,North,0,0.0,0.0,37,0.00,,,0.00,WUHU216WMR968SP,2013-02-09 20:49:00,
2013-02-09 15:54:00,18.5,-3.7,29.93,North,0,0.0,0.0,37,0.00,,,0.00,WUHU216WMR968SP,2013-02-09 20:54:00,
2013-02-09 16:00:00,18.3,-3.9,29.93,North,0,0.0,0.0,37,0.00,,,0.00,WUHU216WMR968SP,2013-02-09 21:00:00,
2013-02-09 16:05:00,18.3,-3.9,29.93,North,0,0.0,0.0,37,0.00,,,0.00,WUHU216WMR968SP,2013-02-09 21:05:00,
2013-02-09 16:10:00,18.3,-3.9,29.93,North,0,0.0,0.0,37,0.00,,,0.00,WUHU216WMR968SP,2013-02-09 21:10:00,
2013-02-09 16:15:00,18.3,-3.9,29.93,North,0,0.0,0.0,37,0.00,,,0.00,WUHU216WMR968SP,2013-02-09 21:15:00,
2013-02-09 16:20:00,18.1,-4.0,29.93,North,0,0.0,0.0,37,0.00,,,0.00,WUHU216WMR968SP,2013-02-09 21:20:00,
2013-02-09 16:25:00,18.0,-4.1,29.96,North,0,0.0,0.0,37,0.00,,,0.00,WUHU216WMR968SP,2013-02-09 21:25:00,
2013-02-09 16:30:00,17.8,-4.3,29.96,North,0,0.0,0.0,37,0.00,,,0.00,WUHU216WMR968SP,2013-02-09 21:30:00,
2013-02-09 16:35:00,17.6,-3.9,29.96,North,0,0.0,0.0,38,0.00,,,0.00,WUHU216WMR968SP,2013-02-09 21:35:00,
2013-02-09 16:40:00,17.6,-4.5,29.96,North,0,0.0,0.0,37,0.00,,,0.00,WUHU216WMR968SP,2013-02-09 21:40:00,
2013-02-09 16:45:00,17.6,-3.9,29.96,North,0,0.0,0.0,38,0.00,,,0.00,WUHU216WMR968SP,2013-02-09 21:45:00,
2013-02-09 16:50:00,17.6,-3.9,29.96,North,0,0.0,0.0,38,0.00,,,0.00,WUHU216WMR968SP,2013-02-09 21:50:00,
2013-02-09 16:55:00,17.6,-3.9,29.96,North,0,0.0,0.0,38,0.00,,,0.00,WUHU216WMR968SP,2013-02-09 21:55:00,
2013-02-09 17:00:00,17.4,-4.7,29.96,North,0,0.0,0.0,37,0.00,,,0.00,WUHU216WMR968SP,2013-02-09 22:00:00,
2013-02-09 17:05:00,17.1,-4.9,29.96,North,0,0.0,0.0,37,0.00,,,0.00,WUHU216WMR968SP,2013-02-09 22:05:00,
2013-02-09 17:10:00,17.1,-4.9,29.99,North,0,0.0,0.0,37,0.00,,,0.00,WUHU216WMR968SP,2013-02-09 22:10:00,
2013-02-09 17:15:00,16.9,-4.5,29.99,North,0,0.0,0.0,38,0.00,,,0.00,WUHU216WMR968SP,2013-02-09 22:15:00,
2013-02-09 17:20:00,16.5,-5.5,29.99,North,0,0.0,0.0,37,0.00,,,0.00,WUHU216WMR968SP,2013-02-09 22:20:00,
2013-02-09 17:25:00,16.5,-5.5,29.99,North,0,0.0,0.0,37,0.00,,,0.00,WUHU216WMR968SP,2013-02-09 22:25:00,
2013-02-09 17:30:00,16.2,-5.2,29.99,North,0,0.0,0.0,38,0.00,,,0.00,WUHU216WMR968SP,2013-02-09 22:30:00,
2013-02-09 17:35:00,16.2,-5.2,29.99,North,0,0.0,0.0,38,0.00,,,0.00,WUHU216WMR968SP,2013-02-09 22:35:00,
2013-02-09 17:40:00,16.0,-5.4,29.99,North,0,0.0,0.0,38,0.00,,,0.00,WUHU216WMR968SP,2013-02-09 22:40:00,
2013-02-09 17:45:00,16.0,-5.4,29.99,North,0,0.0,0.0,38,0.00,,,0.00,WUHU216WMR968SP,2013-02-09 22:45:00,
2013-02-09 17:50:00,16.0,-5.4,29.99,North,0,0.0,0.0,38,0.00,,,0.00,WUHU216WMR968SP,2013-02-09 22:50:00,
2013-02-09 17:55:00,16.0,-5.4,30.02,North,0,0.0,0.0,38,0.00,,,0.00,WUHU216WMR968SP,2013-02-09 22:55:00,
2013-02-09 18:00:00,15.8,-5.5,30.02,North,0,0.0,0.0,38,0.00,,,0.00,WUHU216WMR968SP,2013-02-09 23:00:00,
2013-02-09 18:05:00,15.8,-5.5,30.02,North,0,0.0,0.0,38,0.00,,,0.00,WUHU216WMR968SP,2013-02-09 23:05:00,
2013-02-09 18:10:00,15.6,-5.7,30.02,North,0,0.0,0.0,38,0.00,,,0.00,WUHU216WMR968SP,2013-02-09 23:10:00,
2013-02-09 18:15:00,15.4,-6.5,30.02,North,0,0.0,0.0,37,0.00,,,0.00,WUHU216WMR968SP,2013-02-09 23:15:00,
2013-02-09 18:20:00,15.4,-5.9,30.02,North,0,0.0,0.0,38,0.00,,,0.00,WUHU216WMR968SP,2013-02-09 23:20:00,
2013-02-09 18:25:00,15.3,-6.0,30.02,North,0,0.0,0.0,38,0.00,,,0.00,WUHU216WMR968SP,2013-02-09 23:25:00,
2013-02-09 18:30:00,15.3,-6.0,30.02,North,0,0.0,0.0,38,0.00,,,0.00,WUHU216WMR968SP,2013-02-09 23:30:00,
2013-02-09 18:35:00,15.1,-6.2,30.02,North,0,0.0,0.0,38,0.00,,,0.00,WUHU216WMR968SP,2013-02-09 23:35:00,
2013-02-09 18:40:00,15.1,-6.2,30.02,North,0,0.0,0.0,38,0.00,,,0.00,WUHU216WMR968SP,2013-02-09 23:40:00,
2013-02-09 18:45:00,15.1,-6.7,30.02,North,0,0.0,0.0,37,0.00,,,0.00,WUHU216WMR968SP,2013-02-09 23:45:00,
2013-02-09 18:50:00,15.1,-6.2,30.05,North,0,0.0,0.0,38,0.00,,,0.00,WUHU216WMR968SP,2013-02-09 23:50:00,
2013-02-09 18:55:00,14.9,-6.3,30.05,North,0,0.0,0.0,38,0.00,,,0.00,WUHU216WMR968SP,2013-02-09 23:55:00,
2013-02-09 19:00:00,14.7,-6.5,30.05,North,0,0.0,0.0,38,0.00,,,0.00,WUHU216WMR968SP,2013-02-10 00:00:00,
2013-02-09 19:05:00,14.5,-6.7,30.05,North,0,0.0,0.0,38,0.00,,,0.00,WUHU216WMR968SP,2013-02-10 00:05:00,
2013-02-09 19:10:00,14.4,-6.8,30.05,North,0,0.0,0.0,38,0.00,,,0.00,WUHU216WMR968SP,2013-02-10 00:10:00,
2013-02-09 19:15:00,14.2,-7.0,30.05,North,0,0.0,0.0,38,0.00,,,0.00,WUHU216WMR968SP,2013-02-10 00:15:00,
2013-02-09 19:20:00,14.2,-7.0,30.05,North,0,0.0,0.0,38,0.00,,,0.00,WUHU216WMR968SP,2013-02-10 00:20:00,
2013-02-09 19:25:00,13.8,-6.8,30.05,North,0,0.0,0.0,39,0.00,,,0.00,WUHU216WMR968SP,2013-02-10 00:25:00,
2013-02-09 19:30:00,13.6,-7.0,30.05,North,0,0.0,0.0,39,0.00,,,0.00,WUHU216WMR968SP,2013-02-10 00:30:00,
2013-02-09 19:35:00,13.5,-7.1,30.05,North,0,0.0,0.0,39,0.00,,,0.00,WUHU216WMR968SP,2013-02-10 00:35:00,
2013-02-09 19:40:00,13.1,-7.4,30.05,North,0,0.0,0.0,39,0.00,,,0.00,WUHU216WMR968SP,2013-02-10 00:40:00,
2013-02-09 19:45:00,12.9,-7.6,30.05,North,0,0.0,0.0,39,0.00,,,0.00,WUHU216WMR968SP,2013-02-10 00:45:00,
2013-02-09 19:50:00,13.1,-7.4,30.05,North,0,0.0,0.0,39,0.00,,,0.00,WUHU216WMR968SP,2013-02-10 00:50:00,
2013-02-09 19:55:00,13.3,-7.2,30.05,North,0,0.0,0.0,39,0.00,,,0.00,WUHU216WMR968SP,2013-02-10 00:55:00,
2013-02-09 20:00:00,13.3,-7.2,30.05,North,0,0.0,0.0,39,0.00,,,0.00,WUHU216WMR968SP,2013-02-10 01:00:00,
2013-02-09 20:05:00,13.1,-7.4,30.05,North,0,0.0,0.0,39,0.00,,,0.00,WUHU216WMR968SP,2013-02-10 01:05:00,
2013-02-09 20:10:00,12.9,-7.6,30.08,North,0,0.0,0.0,39,0.00,,,0.00,WUHU216WMR968SP,2013-02-10 01:10:00,
2013-02-09 20:15:00,12.9,-7.6,30.08,North,0,0.0,0.0,39,0.00,,,0.00,WUHU216WMR968SP,2013-02-10 01:15:00,
2013-02-09 20:20:00,12.6,-7.9,30.08,North,0,0.0,0.0,39,0.00,,,0.00,WUHU216WMR968SP,2013-02-10 01:20:00,
2013-02-09 20:25:00,12.6,-7.9,30.08,North,0,0.0,0.0,39,0.00,,,0.00,WUHU216WMR968SP,2013-02-10 01:25:00,
2013-02-09 20:30:00,12.6,-7.9,30.08,North,0,0.0,0.0,39,0.00,,,0.00,WUHU216WMR968SP,2013-02-10 01:30:00,
2013-02-09 20:35:00,12.2,-8.2,30.08,North,0,0.0,0.0,39,0.00,,,0.00,WUHU216WMR968SP,2013-02-10 01:35:00,
2013-02-09 20:40:00,12.2,-8.2,30.08,North,0,0.0,0.0,39,0.00,,,0.00,WUHU216WMR968SP,2013-02-10 01:40:00,
2013-02-09 20:45:00,12.2,-8.2,30.08,North,0,0.0,0.0,39,0.00,,,0.00,WUHU216WMR968SP,2013-02-10 01:45:00,
2013-02-09 20:50:00,12.0,-8.4,30.08,North,0,0.0,0.0,39,0.00,,,0.00,WUHU216WMR968SP,2013-02-10 01:50:00,
2013-02-09 20:55:00,11.8,-8.6,30.08,North,0,0.0,0.0,39,0.00,,,0.00,WUHU216WMR968SP,2013-02-10 01:55:00,
2013-02-09 21:00:00,11.7,-8.7,30.08,North,0,0.0,0.0,39,0.00,,,0.00,WUHU216WMR968SP,2013-02-10 02:00:00,
2013-02-09 21:05:00,11.3,-9.0,30.08,North,0,0.0,0.0,39,0.00,,,0.00,WUHU216WMR968SP,2013-02-10 02:05:00,
2013-02-09 21:10:00,11.7,-8.7,30.08,North,0,0.0,0.0,39,0.00,,,0.00,WUHU216WMR968SP,2013-02-10 02:10:00,
2013-02-09 21:15:00,11.3,-9.0,30.08,North,0,0.0,0.0,39,0.00,,,0.00,WUHU216WMR968SP,2013-02-10 02:15:00,
2013-02-09 21:20:00,11.5,-8.9,30.11,North,0,0.0,0.0,39,0.00,,,0.00,WUHU216WMR968SP,2013-02-10 02:20:00,
2013-02-09 21:25:00,11.7,-8.7,30.11,North,0,0.0,0.0,39,0.00,,,0.00,WUHU216WMR968SP,2013-02-10 02:25:00,
2013-02-09 21:30:00,11.5,-8.9,30.11,North,0,0.0,0.0,39,0.00,,,0.00,WUHU216WMR968SP,2013-02-10 02:30:00,
2013-02-09 21:35:00,11.3,-9.0,30.08,North,0,0.0,0.0,39,0.00,,,0.00,WUHU216WMR968SP,2013-02-10 02:35:00,
2013-02-09 21:40:00,11.1,-9.2,30.08,North,0,0.0,0.0,39,0.00,,,0.00,WUHU216WMR968SP,2013-02-10 02:40:00,
2013-02-09 21:45:00,10.8,-9.5,30.08,North,0,0.0,0.0,39,0.00,,,0.00,WUHU216WMR968SP,2013-02-10 02:45:00,
2013-02-09 21:50:00,10.2,-10.0,30.08,North,0,0.0,0.0,39,0.00,,,0.00,WUHU216WMR968SP,2013-02-10 02:50:00,
2013-02-09 21:55:00,9.5,-10.7,30.08,North,0,0.0,0.0,39,0.00,,,0.00,WUHU216WMR968SP,2013-02-10 02:55:00,
2013-02-09 22:00:00,9.7,-10.5,30.08,North,0,0.0,0.0,39,0.00,,,0.00,WUHU216WMR968SP,2013-02-10 03:00:00,
2013-02-09 22:05:00,9.7,-10.5,30.11,North,0,0.0,0.0,39,0.00,,,0.00,WUHU216WMR968SP,2013-02-10 03:05:00,
2013-02-09 22:10:00,9.5,-10.7,30.11,North,0,0.0,0.0,39,0.00,,,0.00,WUHU216WMR968SP,2013-02-10 03:10:00,
2013-02-09 22:16:00,9.3,-10.9,30.11,North,0,0.0,0.0,39,0.00,,,0.00,WUHU216WMR968SP,2013-02-10 03:16:00,
2013-02-09 22:20:00,9.3,-10.9,30.11,North,0,0.0,0.0,39,0.00,,,0.00,WUHU216WMR968SP,2013-02-10 03:20:00,
2013-02-09 22:26:00,9.7,-10.5,30.11,North,0,0.0,0.0,39,0.00,,,0.00,WUHU216WMR968SP,2013-02-10 03:26:00,
2013-02-09 22:31:00,9.7,-10.5,30.11,North,0,0.0,0.0,39,0.00,,,0.00,WUHU216WMR968SP,2013-02-10 03:31:00,
2013-02-09 22:36:00,9.7,-10.5,30.11,North,0,0.0,0.0,39,0.00,,,0.00,WUHU216WMR968SP,2013-02-10 03:36:00,
2013-02-09 22:41:00,9.5,-10.7,30.11,North,0,0.0,0.0,39,0.00,,,0.00,WUHU216WMR968SP,2013-02-10 03:41:00,
2013-02-09 22:46:00,9.9,-10.3,30.11,North,0,0.0,0.0,39,0.00,,,0.00,WUHU216WMR968SP,2013-02-10 03:46:00,
2013-02-09 22:51:00,9.7,-10.5,30.11,North,0,0.0,0.0,39,0.00,,,0.00,WUHU216WMR968SP,2013-02-10 03:51:00,
2013-02-09 22:56:00,10.0,-10.2,30.11,North,0,0.0,0.0,39,0.00,,,0.00,WUHU216WMR968SP,2013-02-10 03:56:00,
2013-02-09 23:01:00,10.2,-10.0,30.11,North,0,0.0,0.0,39,0.00,,,0.00,WUHU216WMR968SP,2013-02-10 04:01:00,
2013-02-09 23:06:00,10.2,-10.0,30.11,North,0,0.0,0.0,39,0.00,,,0.00,WUHU216WMR968SP,2013-02-10 04:06:00,
2013-02-09 23:11:00,10.4,-9.9,30.11,North,0,0.0,0.0,39,0.00,,,0.00,WUHU216WMR968SP,2013-02-10 04:11:00,
2013-02-09 23:16:00,10.4,-9.9,30.11,North,0,0.0,0.0,39,0.00,,,0.00,WUHU216WMR968SP,2013-02-10 04:16:00,
2013-02-09 23:21:00,10.2,-10.0,30.11,North,0,0.0,0.0,39,0.00,,,0.00,WUHU216WMR968SP,2013-02-10 04:21:00,
2013-02-09 23:26:00,10.4,-9.9,30.11,North,0,0.0,0.0,39,0.00,,,0.00,WUHU216WMR968SP,2013-02-10 04:26:00,
2013-02-09 23:31:00,10.0,-10.2,30.11,North,0,0.0,0.0,39,0.00,,,0.00,WUHU216WMR968SP,2013-02-10 04:31:00,
2013-02-09 23:36:00,10.2,-10.0,30.11,North,0,0.0,0.0,39,0.00,,,0.00,WUHU216WMR968SP,2013-02-10 04:36:00,
2013-02-09 23:41:00,10.4,-9.9,30.11,North,0,0.0,0.0,39,0.00,,,0.00,WUHU216WMR968SP,2013-02-10 04:41:00,
2013-02-09 23:46:00,10.6,-9.7,30.11,North,0,0.0,0.0,39,0.00,,,0.00,WUHU216WMR968SP,2013-02-10 04:46:00,
2013-02-09 23:51:00,10.8,-9.5,30.11,North,0,0.0,0.0,39,0.00,,,0.00,WUHU216WMR968SP,2013-02-10 04:51:00,
2013-02-09 23:56:00,10.8,-9.5,30.11,North,0,0.0,0.0,39,0.00,,,0.00,WUHU216WMR968SP,2013-02-10 04:56:00,